BKDO2: Broken Bow Lake

Data processed at Mon Oct 16 2017 22:09


All information presented herein is the property of the government of the United States of America and may be revised or deleted at any time without prior notice.
Dissemination of this information without the expressed written consent of the Public Affairs Office, Tulsa District U.S. Army Corps of Engineers is strictly prohibited.
These data are gathered electronically and, as presented, have not undergone any form of quality control. These data are not guaranteed to be valid or correct.
Go to home page.
Go to station list.

Upstream stations:

Downstream station:
Previous Day
Next Day
Current Day
    
SHEF ID:       BKDO2     Broken Bow Lake
STATION TYPE:  RESERVOIR
Normal Pool:  Bottom =   559.00, Top =   600.94

               PRECIP ELEVATION   STORAGE   TW-ELEV    INFLOW   RELEASE  AIR-TEMP  WIND-DIRWIND-SPEED REL-HUMID SOLAR-RAD   VOLTAGE  BAT-LOAD
                   in        ft     ac-ft        ft       cfs       cfs         F       deg       mph         %      W/m2      volt      volt
              Ccp-Rev   Ccp-Rev   Ccp-Rev   Ccp-Rev  Regi-Rev  Regi-Rev   Ccp-Rev   Ccp-Rev   Ccp-Rev   Ccp-Rev   Ccp-Rev   Ccp-Rev   Ccp-Rev
(US/Central)
10/16 00:00      0.00    593.51    834753    401.26         0       152     60.66    356.80      0.24     49.69      0.00     13.02     12.65
10/16 01:00      0.00    593.52    834880    401.26         0       152     60.76    110.80      0.62     57.81      0.00     13.01     12.65
10/16 02:00      0.00    593.51    834753    401.26         1       152     59.77    101.90      0.82     58.36      0.00     12.99     12.65
10/16 03:00      0.00    593.51    834753    401.26         1       152     57.34    357.90      1.14     56.34      0.00     12.98     12.60
10/16 04:00      0.00    593.51    834753    401.26         1       152     58.24    130.60      0.28     59.95      0.00     12.97     12.60
10/16 05:00      0.00    593.52    834880    401.26         1       152     56.70     99.40      0.49     68.93      0.00     12.95     12.60
10/16 06:00      0.00    593.51    834753    401.27         1       152     55.81     97.90      1.02     68.80      0.00     12.94     12.60
10/16 07:00      0.00    593.50    834625    401.27         1       152     55.71    161.20      0.09     65.13      0.00     12.92     12.60
10/16 08:00      0.00    593.50    834625    401.27         1       152     55.49     94.30      0.99     63.30     11.00     12.90     12.54
10/16 09:00      0.00    593.50    834625    401.27      -901      -901     57.15    112.90      0.40     63.80     23.00     12.88     12.54
10/16 10:00      0.00    593.50    834625    401.27      -901      -901     59.32      8.80      1.23     49.44    424.00     12.90     12.54
10/16 11:00      0.00    593.49    834497    401.26      -901      -901     62.08     49.10      0.21     44.26    578.00     13.02     12.54
10/16 12:00      0.00    593.48    834370    401.26      -901      -901     64.18     60.00      0.48     36.81    686.00     13.31     12.65
10/16 13:00      0.00    593.49    834497    401.26      -901      -901     65.93    351.20      0.42     37.36    735.00     14.35     12.95
10/16 14:00      0.00    593.45    833986    403.90      -901      -901     68.13    310.10      0.36     31.80    718.00     13.66     13.53
10/16 15:00      0.00    593.42    833603    405.44      -901      -901     70.32    320.60      0.32     27.84    638.00     13.73     13.36
10/16 16:00      0.00    593.37    832965    405.37      -901      -901     71.20     37.40      0.26     28.02    505.00     13.79     13.65
10/16 17:00      0.00    593.36    832837    404.14      -901      -901     72.18    323.00      0.44     28.08    328.00     13.46     13.30
10/16 18:00      0.00    593.34    832582    401.26      -901      -901     70.32    338.40      0.36     27.10     24.00     13.28     13.07
10/16 19:00      0.00    593.34    832582    401.25      -901      -901     67.35      0.60      0.60     26.92      4.00     13.15     12.89
10/16 20:00      0.00    593.32    832326    401.24      -901      -901     59.02    166.10      1.03     56.72      0.00     13.10     12.77
10/16 21:00      0.00    593.33    832454    401.23      -901      -901     56.25    170.60      0.63     57.44      0.00     13.08     12.71
10/16 22:00      0.00    593.33    832454    401.23      ----      ----     54.07    177.80      0.35     63.98      0.00     13.05     12.71
10/16 23:00      ----      ----      ----      ----      ----      ----      ----      ----      ----      ----      ----      ----      ----